createdAt,value
2023-01-20T00:00:13.551Z,9.90
2023-01-20T00:01:13.893Z,10.00
2023-01-20T00:02:13.752Z,11.10
2023-01-20T00:03:15.037Z,16.20
2023-01-20T00:04:14.757Z,8.10
2023-01-20T00:05:14.899Z,12.30
2023-01-20T00:06:13.669Z,11.10
2023-01-20T00:07:13.718Z,14.10
2023-01-20T00:08:13.748Z,7.90
2023-01-20T00:09:13.445Z,15.90
2023-01-20T00:10:13.710Z,6.00
2023-01-20T00:11:13.469Z,9.40
2023-01-20T00:12:13.747Z,9.50
2023-01-20T00:13:13.604Z,10.00
2023-01-20T00:14:13.755Z,10.80
2023-01-20T00:15:13.919Z,7.00
2023-01-20T00:16:13.635Z,6.40
2023-01-20T00:17:13.475Z,7.20
2023-01-20T00:18:13.987Z,11.90
2023-01-20T00:19:13.476Z,8.30
2023-01-20T00:20:13.517Z,10.20
2023-01-20T00:21:13.549Z,10.00
2023-01-20T00:22:13.586Z,10.20
2023-01-20T00:23:13.569Z,9.40
2023-01-20T00:24:13.437Z,7.90
2023-01-20T00:25:13.830Z,10.50
2023-01-20T00:26:13.371Z,9.00
2023-01-20T00:27:13.494Z,7.70
2023-01-20T00:28:13.435Z,6.50
2023-01-20T00:29:13.404Z,10.40
2023-01-20T00:30:14.525Z,11.60
2023-01-20T00:31:13.478Z,13.80
2023-01-20T00:32:13.341Z,12.40
2023-01-20T00:33:13.512Z,11.10
2023-01-20T00:34:13.667Z,9.60
2023-01-20T00:35:13.796Z,12.60
2023-01-20T00:36:13.366Z,10.00
2023-01-20T00:37:13.342Z,8.50
2023-01-20T00:38:13.676Z,10.80
2023-01-20T00:39:13.621Z,10.00
2023-01-20T00:40:13.357Z,7.90
2023-01-20T00:41:13.321Z,10.60
2023-01-20T00:42:13.399Z,8.00
2023-01-20T00:43:13.275Z,11.40
2023-01-20T00:44:13.517Z,19.10
2023-01-20T00:45:13.646Z,12.20
2023-01-20T00:46:13.543Z,9.30
2023-01-20T00:47:13.430Z,12.50
2023-01-20T00:48:13.715Z,10.60
2023-01-20T00:49:13.506Z,12.50
2023-01-20T00:50:13.424Z,9.30
2023-01-20T00:51:13.283Z,17.00
2023-01-20T00:52:13.388Z,16.20
2023-01-20T00:53:13.098Z,7.60
2023-01-20T00:54:13.261Z,12.00
2023-01-20T00:55:13.630Z,10.70
2023-01-20T00:56:13.314Z,12.70
2023-01-20T00:57:13.456Z,12.10
2023-01-20T00:58:13.220Z,6.20
2023-01-20T00:59:12.915Z,9.40
2023-01-20T01:00:13.048Z,13.70
2023-01-20T01:01:13.335Z,8.70
2023-01-20T01:02:13.133Z,8.80
2023-01-20T01:03:12.887Z,5.80
2023-01-20T01:04:12.937Z,9.20
2023-01-20T01:05:13.064Z,11.10
2023-01-20T01:06:13.027Z,11.40
2023-01-20T01:07:12.855Z,12.40
2023-01-20T01:08:13.016Z,10.90
2023-01-20T01:09:12.125Z,7.40
2023-01-20T01:10:12.738Z,10.10
2023-01-20T01:11:12.983Z,11.30
2023-01-20T01:12:12.796Z,10.40
2023-01-20T01:13:12.868Z,11.20
2023-01-20T01:14:12.734Z,7.70
2023-01-20T01:15:13.107Z,9.00
2023-01-20T01:16:12.834Z,8.90
2023-01-20T01:17:12.907Z,9.20
2023-01-20T01:18:12.727Z,8.20
2023-01-20T01:19:12.874Z,6.80
2023-01-20T01:20:12.840Z,12.80
2023-01-20T01:21:12.841Z,8.30
2023-01-20T01:22:12.745Z,8.20
2023-01-20T01:23:12.888Z,6.80
2023-01-20T01:24:12.722Z,9.10
2023-01-20T01:25:13.954Z,9.30
2023-01-20T01:26:13.107Z,8.90
2023-01-20T01:27:12.577Z,11.00
2023-01-20T01:28:12.798Z,12.20
2023-01-20T01:29:12.718Z,9.60
2023-01-20T01:30:13.547Z,6.50
2023-01-20T01:31:11.980Z,7.00
2023-01-20T01:32:12.697Z,8.10
2023-01-20T01:33:12.679Z,7.30
2023-01-20T01:34:11.959Z,6.60
2023-01-20T01:35:13.146Z,11.30
2023-01-20T01:36:12.627Z,9.30
2023-01-20T01:37:12.586Z,12.10
2023-01-20T01:38:12.674Z,8.10
2023-01-20T01:39:12.589Z,6.90
2023-01-20T01:40:12.547Z,9.20
2023-01-20T01:41:12.545Z,9.00
2023-01-20T01:42:12.366Z,7.40
2023-01-20T01:43:12.586Z,12.30
2023-01-20T01:44:13.250Z,7.10
2023-01-20T01:45:13.424Z,9.10
2023-01-20T01:46:12.387Z,11.70
2023-01-20T01:47:12.518Z,8.70
2023-01-20T01:48:12.439Z,6.00
2023-01-20T01:49:12.617Z,7.60
2023-01-20T01:50:12.469Z,8.60
2023-01-20T01:51:12.576Z,10.10
2023-01-20T01:52:12.456Z,7.20
2023-01-20T01:53:12.660Z,9.80
2023-01-20T01:54:12.463Z,9.60
2023-01-20T01:55:13.009Z,8.60
2023-01-20T01:56:12.456Z,11.70
2023-01-20T01:57:12.291Z,6.30
2023-01-20T01:58:12.467Z,9.30
2023-01-20T01:59:12.285Z,8.20
2023-01-20T02:00:12.389Z,7.80
2023-01-20T02:01:12.477Z,9.20
2023-01-20T02:02:12.645Z,6.40
2023-01-20T02:03:12.316Z,6.60
2023-01-20T02:04:12.409Z,9.70
2023-01-20T02:05:12.372Z,9.70
2023-01-20T02:06:12.355Z,8.10
2023-01-20T02:07:12.253Z,8.00
2023-01-20T02:08:12.430Z,9.50
2023-01-20T02:09:12.386Z,10.00
2023-01-20T02:10:12.317Z,11.50
2023-01-20T02:11:12.247Z,9.80
2023-01-20T02:12:12.069Z,14.00
2023-01-20T02:13:12.324Z,12.30
2023-01-20T02:14:12.107Z,8.70
2023-01-20T02:15:12.670Z,8.90
2023-01-20T02:16:12.065Z,9.10
2023-01-20T02:17:12.339Z,11.20
2023-01-20T02:18:12.267Z,7.40
2023-01-20T02:19:12.200Z,9.50
2023-01-20T02:20:12.107Z,5.30
2023-01-20T02:21:12.227Z,6.70
2023-01-20T02:22:12.141Z,10.00
2023-01-20T02:23:12.339Z,9.20
2023-01-20T02:24:12.163Z,8.20
2023-01-20T02:25:12.448Z,11.20
2023-01-20T02:26:12.036Z,7.20
2023-01-20T02:27:12.067Z,6.20
2023-01-20T02:28:12.109Z,8.70
2023-01-20T02:29:11.967Z,12.20
2023-01-20T02:30:12.102Z,7.30
2023-01-20T02:31:11.919Z,7.20
2023-01-20T02:32:12.115Z,9.60
2023-01-20T02:33:11.906Z,11.80
2023-01-20T02:34:12.188Z,9.10
2023-01-20T02:35:12.299Z,9.00
2023-01-20T02:36:12.033Z,8.70
2023-01-20T02:37:11.956Z,9.50
2023-01-20T02:38:12.079Z,8.20
2023-01-20T02:39:12.136Z,9.40
2023-01-20T02:40:12.393Z,10.80
2023-01-20T02:41:11.918Z,8.00
2023-01-20T02:42:11.777Z,8.00
2023-01-20T02:43:11.953Z,7.10
2023-01-20T02:44:11.826Z,5.00
2023-01-20T02:45:12.020Z,6.50
2023-01-20T02:46:11.812Z,5.90
2023-01-20T02:47:12.121Z,7.10
2023-01-20T02:48:11.969Z,8.00
2023-01-20T02:49:11.968Z,5.60
2023-01-20T02:50:11.821Z,5.20
2023-01-20T02:51:11.945Z,9.10
2023-01-20T02:52:11.727Z,9.40
2023-01-20T02:53:11.856Z,7.60
2023-01-20T02:54:11.918Z,5.10
2023-01-20T02:55:12.039Z,6.50
2023-01-20T02:56:11.755Z,5.80
2023-01-20T02:57:11.786Z,7.10
2023-01-20T02:58:11.779Z,10.50
2023-01-20T02:59:11.588Z,6.10
2023-01-20T03:00:11.977Z,4.60
2023-01-20T03:01:11.725Z,6.80
2023-01-20T03:02:11.808Z,6.50
2023-01-20T03:03:11.601Z,7.60
2023-01-20T03:04:11.844Z,6.80
2023-01-20T03:05:11.830Z,6.10
2023-01-20T03:06:11.797Z,8.40
2023-01-20T03:07:11.747Z,11.90
2023-01-20T03:08:11.748Z,4.80
2023-01-20T03:09:11.657Z,9.40
2023-01-20T03:10:11.748Z,7.40
2023-01-20T03:11:11.766Z,8.50
2023-01-20T03:12:11.628Z,6.90
2023-01-20T03:13:11.557Z,9.90
2023-01-20T03:14:11.543Z,9.50
2023-01-20T03:15:11.752Z,10.50
2023-01-20T03:16:11.772Z,7.10
2023-01-20T03:17:11.626Z,8.30
2023-01-20T03:18:11.432Z,7.30
2023-01-20T03:19:11.613Z,8.20
2023-01-20T03:20:11.516Z,8.10
2023-01-20T03:21:11.708Z,7.70
2023-01-20T03:22:11.401Z,6.90
2023-01-20T03:23:11.575Z,7.00
2023-01-20T03:24:11.492Z,8.60
2023-01-20T03:25:11.548Z,9.20
2023-01-20T03:26:11.563Z,6.70
2023-01-20T03:27:11.564Z,5.80
2023-01-20T03:28:11.647Z,5.60
2023-01-20T03:29:11.386Z,6.00
2023-01-20T03:30:11.436Z,7.40
2023-01-20T03:31:11.472Z,6.80
2023-01-20T03:32:11.545Z,6.40
2023-01-20T03:33:11.491Z,6.20
2023-01-20T03:34:11.667Z,7.90
2023-01-20T03:35:11.258Z,10.90
2023-01-20T03:36:11.477Z,6.60
2023-01-20T03:37:11.291Z,6.10
2023-01-20T03:38:11.647Z,9.40
2023-01-20T03:39:11.283Z,7.10
2023-01-20T03:40:11.368Z,7.10
2023-01-20T03:41:11.265Z,6.70
2023-01-20T03:42:11.451Z,10.00
2023-01-20T03:43:11.301Z,6.90
2023-01-20T03:44:11.218Z,6.00
2023-01-20T03:45:11.316Z,4.30
2023-01-20T03:46:11.134Z,8.40
2023-01-20T03:47:11.408Z,10.00
2023-01-20T03:48:11.117Z,5.80
2023-01-20T03:49:11.845Z,6.60
2023-01-20T03:50:11.120Z,6.40
2023-01-20T03:51:11.276Z,3.80
2023-01-20T03:52:11.102Z,6.10
2023-01-20T03:53:11.439Z,7.20
2023-01-20T03:54:11.129Z,5.30
2023-01-20T03:55:11.291Z,8.00
2023-01-20T03:56:11.147Z,4.20
2023-01-20T03:57:11.327Z,9.00
2023-01-20T03:58:11.190Z,6.40
2023-01-20T03:59:11.299Z,6.90
2023-01-20T04:00:11.188Z,7.90
2023-01-20T04:01:17.823Z,5.90
2023-01-20T04:02:11.604Z,4.10
2023-01-20T04:03:11.047Z,4.40
2023-01-20T04:04:11.222Z,4.40
2023-01-20T04:05:10.960Z,6.10
2023-01-20T04:06:11.086Z,8.40
2023-01-20T04:07:10.970Z,7.40
2023-01-20T04:08:11.180Z,6.00
2023-01-20T04:09:11.159Z,5.20
2023-01-20T04:10:11.286Z,8.70
2023-01-20T04:11:10.979Z,6.90
2023-01-20T04:12:11.159Z,8.00
2023-01-20T04:13:11.028Z,6.00
2023-01-20T04:14:11.075Z,10.50
2023-01-20T04:15:10.990Z,7.00
2023-01-20T04:16:10.884Z,6.50
2023-01-20T04:17:11.266Z,7.30
2023-01-20T04:18:10.847Z,7.30
2023-01-20T04:19:10.967Z,5.50
2023-01-20T04:20:11.011Z,9.90
2023-01-20T04:21:10.946Z,6.50
2023-01-20T04:22:10.882Z,4.40
2023-01-20T04:23:10.938Z,8.70
2023-01-20T04:24:10.905Z,9.30
2023-01-20T04:25:10.947Z,5.90
2023-01-20T04:26:10.777Z,6.10
2023-01-20T04:27:10.959Z,7.60
2023-01-20T04:28:11.028Z,6.80
2023-01-20T04:29:13.094Z,8.60
2023-01-20T04:30:10.867Z,16.30
2023-01-20T04:31:24.872Z,10.30
2023-01-20T04:32:11.287Z,9.10
2023-01-20T04:33:10.671Z,7.60
2023-01-20T04:34:10.871Z,10.80
2023-01-20T04:35:10.706Z,6.00
2023-01-20T04:36:10.823Z,7.40
2023-01-20T04:37:10.635Z,8.00
2023-01-20T04:38:10.772Z,5.70
2023-01-20T04:39:10.631Z,6.70
2023-01-20T04:40:10.937Z,6.60
2023-01-20T04:41:10.699Z,6.60
2023-01-20T04:42:10.712Z,7.50
2023-01-20T04:43:10.722Z,5.60
2023-01-20T04:44:10.728Z,10.20
2023-01-20T04:45:10.658Z,6.80
2023-01-20T04:46:10.654Z,5.90
2023-01-20T04:47:10.656Z,6.70
2023-01-20T04:48:10.525Z,6.00
2023-01-20T04:49:10.626Z,6.70
2023-01-20T04:50:10.479Z,5.60
2023-01-20T04:51:10.811Z,6.30
2023-01-20T04:52:10.644Z,5.50
2023-01-20T04:53:10.663Z,8.70
2023-01-20T04:54:10.511Z,6.60
2023-01-20T04:55:10.726Z,6.70
2023-01-20T04:56:10.647Z,5.00
2023-01-20T04:57:10.759Z,6.50
2023-01-20T04:58:10.489Z,5.70
2023-01-20T04:59:10.634Z,3.00
2023-01-20T05:00:10.502Z,5.50
2023-01-20T05:01:10.666Z,6.80
2023-01-20T05:02:10.743Z,6.50
2023-01-20T05:03:10.321Z,4.20
2023-01-20T05:04:10.606Z,5.70
2023-01-20T05:05:10.337Z,4.50
2023-01-20T05:06:10.487Z,4.80
2023-01-20T05:07:10.416Z,4.50
2023-01-20T05:08:10.997Z,5.30
2023-01-20T05:09:10.389Z,4.30
2023-01-20T05:10:12.355Z,5.40
2023-01-20T05:11:10.416Z,3.50
2023-01-20T05:12:10.456Z,7.80
2023-01-20T05:13:10.405Z,6.00
2023-01-20T05:14:10.494Z,4.20
2023-01-20T05:15:10.378Z,3.90
2023-01-20T05:16:10.580Z,3.90
2023-01-20T05:17:10.309Z,4.00
2023-01-20T05:18:10.240Z,4.50
2023-01-20T05:19:09.827Z,5.70
2023-01-20T05:20:10.129Z,6.60
2023-01-20T05:21:10.280Z,5.30
2023-01-20T05:22:10.193Z,6.10
2023-01-20T05:23:10.731Z,5.80
2023-01-20T05:24:10.328Z,9.30
2023-01-20T05:25:10.306Z,6.60
2023-01-20T05:26:10.168Z,5.00
2023-01-20T05:27:10.535Z,6.70
2023-01-20T05:28:10.202Z,7.70
2023-01-20T05:29:10.256Z,5.90
2023-01-20T05:30:10.665Z,5.70
2023-01-20T05:31:10.368Z,4.80
2023-01-20T05:32:10.271Z,4.20
2023-01-20T05:33:10.186Z,6.00
2023-01-20T05:34:10.246Z,6.90
2023-01-20T05:35:09.959Z,8.90
2023-01-20T05:36:10.184Z,9.90
2023-01-20T05:37:10.057Z,5.10
2023-01-20T05:38:10.211Z,9.10
2023-01-20T05:39:10.160Z,4.60
2023-01-20T05:40:10.311Z,6.90
2023-01-20T05:41:10.050Z,6.40
2023-01-20T05:42:10.138Z,6.80
2023-01-20T05:43:12.787Z,5.90
2023-01-20T05:44:10.121Z,6.60
2023-01-20T05:45:10.011Z,8.30
2023-01-20T05:46:10.167Z,7.10
2023-01-20T05:47:10.034Z,7.10
2023-01-20T05:48:10.127Z,6.50
2023-01-20T05:49:10.023Z,5.40
2023-01-20T05:50:09.869Z,4.50
2023-01-20T05:51:10.021Z,8.00
2023-01-20T05:52:09.824Z,7.40
2023-01-20T05:53:10.101Z,5.30
2023-01-20T05:54:09.839Z,6.90
2023-01-20T05:55:10.020Z,3.90
2023-01-20T05:56:09.837Z,6.90
2023-01-20T05:57:09.963Z,3.90
2023-01-20T05:58:09.936Z,8.30
2023-01-20T05:59:09.977Z,5.90
2023-01-20T06:00:09.837Z,6.90
2023-01-20T06:01:09.970Z,15.90
2023-01-20T06:02:09.859Z,5.10
2023-01-20T06:03:09.986Z,13.10
2023-01-20T06:04:10.000Z,6.00
2023-01-20T06:05:09.745Z,9.10
2023-01-20T06:06:10.071Z,4.70
2023-01-20T06:07:09.756Z,7.90
2023-01-20T06:08:09.951Z,4.40
2023-01-20T06:09:09.736Z,9.70
2023-01-20T06:10:09.858Z,4.40
2023-01-20T06:11:09.677Z,6.70
2023-01-20T06:12:09.814Z,10.50
2023-01-20T06:13:09.758Z,8.00
2023-01-20T06:14:09.795Z,4.90
2023-01-20T06:15:09.732Z,9.30
2023-01-20T06:16:09.824Z,7.40
2023-01-20T06:17:09.692Z,10.80
2023-01-20T06:18:09.817Z,7.00
2023-01-20T06:19:09.689Z,8.20
2023-01-20T06:20:10.077Z,6.80
2023-01-20T06:21:09.612Z,7.10
2023-01-20T06:22:09.506Z,9.10
2023-01-20T06:23:09.734Z,7.00
2023-01-20T06:24:09.568Z,6.60
2023-01-20T06:25:09.700Z,4.60
2023-01-20T06:26:09.557Z,4.90
2023-01-20T06:27:10.153Z,5.80
2023-01-20T06:28:10.115Z,5.40
2023-01-20T06:29:09.711Z,7.80
2023-01-20T06:30:09.509Z,12.30
2023-01-20T06:31:09.774Z,6.30
2023-01-20T06:32:09.554Z,6.90
2023-01-20T06:33:09.577Z,4.30
2023-01-20T06:34:09.937Z,4.40
2023-01-20T06:35:11.295Z,5.40
2023-01-20T06:36:09.496Z,4.40
2023-01-20T06:37:09.338Z,5.70
2023-01-20T06:38:09.558Z,4.70
2023-01-20T06:39:09.384Z,5.80
2023-01-20T06:40:09.605Z,5.30
2023-01-20T06:41:09.355Z,6.20
2023-01-20T06:42:11.497Z,5.70
2023-01-20T06:43:09.378Z,6.20
2023-01-20T06:44:09.564Z,7.40
2023-01-20T06:45:09.375Z,6.20
2023-01-20T06:46:09.551Z,6.20
2023-01-20T06:47:09.489Z,6.60
2023-01-20T06:48:09.493Z,4.20
2023-01-20T06:49:10.447Z,6.60
2023-01-20T06:50:09.496Z,5.30
2023-01-20T06:51:09.434Z,7.00
2023-01-20T06:52:09.208Z,8.00
2023-01-20T06:53:09.377Z,5.30
2023-01-20T06:54:09.277Z,5.30
2023-01-20T06:55:09.383Z,4.20
2023-01-20T06:56:09.187Z,6.60
2023-01-20T06:57:09.418Z,6.00
2023-01-20T06:58:09.214Z,5.80
2023-01-20T06:59:09.406Z,6.70
2023-01-20T07:00:09.178Z,5.70
2023-01-20T07:01:09.443Z,8.30
2023-01-20T07:02:09.503Z,5.80
2023-01-20T07:03:09.437Z,6.20
2023-01-20T07:04:09.198Z,3.70
2023-01-20T07:05:09.318Z,4.80
2023-01-20T07:06:09.275Z,8.10
2023-01-20T07:07:09.257Z,4.70
2023-01-20T07:08:08.436Z,6.20
2023-01-20T07:09:09.016Z,6.80
2023-01-20T07:10:09.182Z,9.30
2023-01-20T07:11:09.051Z,5.30
2023-01-20T07:12:09.188Z,7.00
2023-01-20T07:13:09.016Z,9.00
2023-01-20T07:14:09.157Z,4.60
2023-01-20T07:15:09.068Z,9.90
2023-01-20T07:16:11.504Z,7.70
2023-01-20T07:17:09.078Z,7.10
2023-01-20T07:18:09.135Z,8.70
2023-01-20T07:19:09.017Z,10.10
2023-01-20T07:20:09.156Z,5.70
2023-01-20T07:21:09.127Z,7.80
2023-01-20T07:22:09.216Z,7.80
2023-01-20T07:23:09.072Z,6.70
2023-01-20T07:24:08.887Z,7.80
2023-01-20T07:25:09.018Z,8.60
2023-01-20T07:26:08.952Z,5.20
2023-01-20T07:27:09.129Z,6.30
2023-01-20T07:28:09.007Z,9.50
2023-01-20T07:29:09.144Z,7.70
2023-01-20T07:30:08.958Z,5.70
2023-01-20T07:31:09.027Z,5.60
2023-01-20T07:32:08.944Z,7.20
2023-01-20T07:33:09.057Z,9.00
2023-01-20T07:34:08.895Z,5.10
2023-01-20T07:35:08.958Z,7.40
2023-01-20T07:36:08.896Z,3.60
2023-01-20T07:37:09.095Z,6.30
2023-01-20T07:38:08.918Z,8.10
2023-01-20T07:39:08.782Z,5.20
2023-01-20T07:40:08.967Z,7.00
2023-01-20T07:41:08.793Z,5.90
2023-01-20T07:42:08.922Z,4.90
2023-01-20T07:43:08.840Z,6.70
2023-01-20T07:44:08.867Z,14.00
2023-01-20T07:45:09.027Z,7.70
2023-01-20T07:46:08.896Z,12.70
2023-01-20T07:47:08.686Z,11.30
2023-01-20T07:48:08.915Z,5.60
2023-01-20T07:49:11.297Z,6.50
2023-01-20T07:50:08.766Z,14.60
2023-01-20T07:51:08.778Z,15.20
2023-01-20T07:52:08.909Z,21.80
2023-01-20T07:53:08.737Z,9.20
2023-01-20T07:54:08.767Z,13.40
2023-01-20T07:55:08.727Z,6.70
2023-01-20T07:56:08.686Z,24.10
2023-01-20T07:57:08.727Z,18.00
2023-01-20T07:58:08.637Z,13.90
2023-01-20T07:59:08.816Z,11.40
2023-01-20T08:00:08.568Z,13.30
2023-01-20T08:01:08.888Z,8.90
2023-01-20T08:02:08.560Z,17.20
2023-01-20T08:03:08.756Z,19.30
2023-01-20T08:04:08.594Z,13.90
2023-01-20T08:05:08.717Z,20.50
2023-01-20T08:06:08.587Z,7.10
2023-01-20T08:07:08.648Z,6.80
2023-01-20T08:08:08.584Z,8.10
2023-01-20T08:09:08.695Z,11.90
2023-01-20T08:10:08.601Z,17.00
2023-01-20T08:11:08.387Z,25.40
2023-01-20T08:12:08.594Z,58.10
2023-01-20T08:13:08.496Z,59.80
2023-01-20T08:14:08.588Z,39.90
2023-01-20T08:15:08.427Z,25.40
2023-01-20T08:16:08.536Z,30.10
2023-01-20T08:17:08.418Z,12.30
2023-01-20T08:18:08.626Z,31.90
2023-01-20T08:19:08.535Z,15.70
2023-01-20T08:20:08.583Z,16.10
2023-01-20T08:21:08.564Z,24.90
2023-01-20T08:22:08.527Z,46.00
2023-01-20T08:23:08.477Z,26.70
2023-01-20T08:24:08.868Z,24.30
2023-01-20T08:25:08.372Z,25.60
2023-01-20T08:26:08.255Z,35.80
2023-01-20T08:27:08.475Z,28.00
2023-01-20T08:28:08.225Z,30.60
2023-01-20T08:29:08.495Z,10.90
2023-01-20T08:30:08.224Z,14.30
2023-01-20T08:31:08.540Z,16.40
2023-01-20T08:32:08.243Z,12.60
2023-01-20T08:33:08.487Z,12.30
2023-01-20T08:34:08.308Z,8.30
2023-01-20T08:35:08.400Z,8.90
2023-01-20T08:36:08.235Z,14.30
2023-01-20T08:37:08.423Z,7.50
2023-01-20T08:38:08.206Z,9.40
2023-01-20T08:39:08.452Z,7.20
2023-01-20T08:40:08.378Z,11.30
2023-01-20T08:41:08.288Z,8.50
2023-01-20T08:42:08.216Z,9.50
2023-01-20T08:43:08.216Z,15.50
2023-01-20T08:44:08.326Z,18.80
2023-01-20T08:45:08.097Z,27.70
2023-01-20T08:46:08.364Z,26.30
2023-01-20T08:47:08.097Z,44.00
2023-01-20T08:48:08.478Z,37.60
2023-01-20T08:49:08.205Z,23.90
2023-01-20T08:50:08.409Z,30.00
2023-01-20T08:51:08.100Z,15.20
2023-01-20T08:52:09.344Z,9.00
2023-01-20T08:53:08.126Z,8.90
2023-01-20T08:54:08.176Z,16.10
2023-01-20T08:55:08.158Z,19.80
2023-01-20T08:56:08.108Z,18.20
2023-01-20T08:57:08.061Z,13.30
2023-01-20T08:58:07.948Z,34.20
2023-01-20T08:59:08.081Z,11.30
2023-01-20T09:00:08.167Z,13.20
2023-01-20T09:01:08.159Z,18.50
2023-01-20T09:02:08.008Z,8.70
2023-01-20T09:03:08.259Z,11.10
2023-01-20T09:04:07.997Z,13.40
2023-01-20T09:05:08.139Z,8.80
2023-01-20T09:06:07.991Z,10.90
2023-01-20T09:07:08.050Z,9.40
2023-01-20T09:08:07.886Z,5.30
2023-01-20T09:09:08.063Z,14.20
2023-01-20T09:10:08.078Z,10.40
2023-01-20T09:11:08.187Z,8.00
2023-01-20T09:12:07.965Z,7.10
2023-01-20T09:13:08.126Z,7.70
2023-01-20T09:14:07.919Z,9.10
2023-01-20T09:15:07.803Z,7.10
2023-01-20T09:16:08.007Z,11.20
2023-01-20T09:17:07.852Z,9.90
2023-01-20T09:18:07.924Z,6.70
2023-01-20T09:19:07.854Z,8.60
2023-01-20T09:20:07.897Z,8.50
2023-01-20T09:21:07.802Z,6.60
2023-01-20T09:22:07.907Z,10.10
2023-01-20T09:23:07.896Z,7.80
2023-01-20T09:24:07.888Z,7.10
2023-01-20T09:25:07.837Z,6.50
2023-01-20T09:26:07.867Z,8.10
2023-01-20T09:27:07.837Z,7.20
2023-01-20T09:28:07.867Z,9.30
2023-01-20T09:29:07.880Z,9.00
2023-01-20T09:30:07.608Z,5.80
2023-01-20T09:31:07.895Z,10.10
2023-01-20T09:32:07.715Z,5.70
2023-01-20T09:33:08.430Z,4.60
2023-01-20T09:34:07.697Z,7.90
2023-01-20T09:35:08.773Z,5.30
2023-01-20T09:36:07.727Z,7.60
2023-01-20T09:37:07.820Z,5.90
2023-01-20T09:38:07.748Z,5.20
2023-01-20T09:39:07.718Z,6.20
2023-01-20T09:40:07.597Z,10.50
2023-01-20T09:41:07.769Z,5.50
2023-01-20T09:42:07.756Z,8.00
2023-01-20T09:43:07.694Z,10.10
2023-01-20T09:44:07.826Z,4.90
2023-01-20T09:45:07.421Z,9.30
2023-01-20T09:46:07.588Z,5.20
2023-01-20T09:47:07.518Z,7.20
2023-01-20T09:48:07.686Z,6.80
2023-01-20T09:49:08.195Z,5.80
2023-01-20T09:50:07.622Z,6.00
2023-01-20T09:51:07.456Z,4.80
2023-01-20T09:52:07.606Z,8.80
2023-01-20T09:53:07.496Z,5.60
2023-01-20T09:54:07.516Z,6.30
2023-01-20T09:55:07.577Z,8.10
2023-01-20T09:56:08.556Z,5.70
2023-01-20T09:57:07.409Z,7.70
2023-01-20T09:58:07.498Z,4.80
2023-01-20T09:59:07.427Z,7.50
2023-01-20T10:00:07.868Z,6.80
2023-01-20T10:01:07.663Z,4.80
2023-01-20T10:02:07.321Z,6.10
2023-01-20T10:03:07.456Z,6.20
2023-01-20T10:04:07.237Z,6.30
2023-01-20T10:05:07.498Z,6.00
2023-01-20T10:06:07.409Z,6.00
2023-01-20T10:07:07.474Z,5.10
2023-01-20T10:08:07.507Z,6.80
2023-01-20T10:09:07.346Z,6.30
2023-01-20T10:10:07.303Z,6.70
2023-01-20T10:11:07.462Z,7.90
2023-01-20T10:12:07.330Z,6.30
2023-01-20T10:13:07.492Z,5.70
2023-01-20T10:14:07.488Z,8.10
2023-01-20T10:15:07.137Z,6.70
2023-01-20T10:16:07.374Z,5.40
2023-01-20T10:17:07.158Z,9.30
2023-01-20T10:18:07.287Z,5.80
2023-01-20T10:19:07.156Z,6.40
2023-01-20T10:20:07.359Z,4.10
2023-01-20T10:21:07.186Z,4.40
2023-01-20T10:22:07.224Z,5.70
2023-01-20T10:23:07.157Z,5.80
2023-01-20T10:24:07.788Z,6.00
2023-01-20T10:25:07.181Z,6.60
2023-01-20T10:26:07.216Z,5.40
2023-01-20T10:27:07.355Z,4.10
2023-01-20T10:28:07.192Z,5.40
2023-01-20T10:29:07.151Z,6.50
2023-01-20T10:30:07.139Z,10.10
2023-01-20T10:31:07.253Z,13.80
2023-01-20T10:32:07.056Z,6.10
2023-01-20T10:33:07.287Z,4.70
2023-01-20T10:34:06.935Z,6.20
2023-01-20T10:35:07.167Z,7.50
2023-01-20T10:36:07.477Z,5.80
2023-01-20T10:37:07.149Z,5.90
2023-01-20T10:38:06.998Z,9.90
2023-01-20T10:39:07.103Z,6.20
2023-01-20T10:40:07.206Z,5.00
2023-01-20T10:41:07.437Z,6.40
2023-01-20T10:42:07.007Z,8.20
2023-01-20T10:43:07.121Z,5.10
2023-01-20T10:44:06.983Z,3.50
2023-01-20T10:45:06.956Z,4.40
2023-01-20T10:46:07.170Z,4.40
2023-01-20T10:47:06.870Z,5.00
2023-01-20T10:48:07.376Z,2.10
2023-01-20T10:49:06.826Z,5.30
2023-01-20T10:50:07.017Z,8.10
2023-01-20T10:51:07.083Z,6.30
2023-01-20T10:52:06.963Z,5.20
2023-01-20T10:53:06.827Z,5.40
2023-01-20T10:54:06.987Z,7.00
2023-01-20T10:55:06.787Z,4.50
2023-01-20T10:56:06.098Z,4.90
2023-01-20T10:57:07.886Z,5.50
2023-01-20T10:58:07.087Z,4.80
2023-01-20T10:59:06.819Z,7.10
2023-01-20T11:00:06.858Z,5.20
2023-01-20T11:01:06.780Z,8.50
2023-01-20T11:02:12.231Z,4.20
2023-01-20T11:03:06.901Z,7.20
2023-01-20T11:04:07.243Z,6.80
2023-01-20T11:05:06.887Z,6.40
2023-01-20T11:06:07.235Z,4.60
2023-01-20T11:07:06.798Z,8.90
2023-01-20T11:08:06.717Z,4.60
2023-01-20T11:09:06.896Z,5.60
2023-01-20T11:10:06.679Z,3.70
2023-01-20T11:11:07.147Z,4.50
2023-01-20T11:12:06.986Z,4.80
2023-01-20T11:13:07.047Z,6.00
2023-01-20T11:14:06.676Z,8.00
2023-01-20T11:15:05.915Z,5.50
2023-01-20T11:16:07.274Z,5.80
2023-01-20T11:17:05.897Z,5.80
2023-01-20T11:18:07.244Z,5.70
2023-01-20T11:19:07.431Z,4.00
2023-01-20T11:20:06.660Z,4.40
2023-01-20T11:21:06.520Z,5.20
2023-01-20T11:22:07.028Z,4.60
2023-01-20T11:23:06.559Z,4.50
2023-01-20T11:24:06.671Z,4.40
2023-01-20T11:25:06.531Z,3.50
2023-01-20T11:26:06.748Z,10.60
2023-01-20T11:27:06.696Z,4.80
2023-01-20T11:28:06.606Z,4.20
2023-01-20T11:29:07.307Z,5.30
2023-01-20T11:30:06.558Z,4.70
2023-01-20T11:31:06.624Z,5.40
2023-01-20T11:32:06.287Z,4.30
2023-01-20T11:33:06.499Z,10.10
2023-01-20T11:34:06.369Z,6.40
2023-01-20T11:35:06.536Z,7.60
2023-01-20T11:36:07.068Z,4.60
2023-01-20T11:37:05.929Z,12.10
2023-01-20T11:38:06.278Z,6.20
2023-01-20T11:39:06.456Z,8.50
2023-01-20T11:40:06.429Z,10.00
2023-01-20T11:41:06.415Z,5.90
2023-01-20T11:42:06.398Z,7.10
2023-01-20T11:43:06.429Z,5.80
2023-01-20T11:44:06.637Z,3.40
2023-01-20T11:45:20.728Z,5.40
2023-01-20T11:46:06.305Z,5.00
2023-01-20T11:47:06.195Z,7.10
2023-01-20T11:48:06.367Z,5.40
2023-01-20T11:49:06.137Z,6.10
2023-01-20T11:50:06.426Z,5.10
2023-01-20T11:51:06.536Z,3.30
2023-01-20T11:52:06.377Z,5.90
2023-01-20T11:53:06.266Z,6.50
2023-01-20T11:54:06.300Z,6.90
2023-01-20T11:55:06.245Z,6.80
2023-01-20T11:56:06.738Z,10.70
2023-01-20T11:57:06.126Z,11.30
2023-01-20T11:58:06.775Z,10.20
2023-01-20T11:59:05.455Z,11.20
2023-01-20T12:00:06.237Z,7.80
2023-01-20T12:01:06.411Z,8.50
2023-01-20T12:02:06.119Z,15.10
2023-01-20T12:03:06.562Z,20.20
2023-01-20T12:04:06.269Z,10.40
2023-01-20T12:05:06.137Z,22.30
2023-01-20T12:06:06.117Z,19.40
2023-01-20T12:07:06.281Z,8.40
2023-01-20T12:08:06.446Z,29.60
2023-01-20T12:09:06.265Z,25.60
2023-01-20T12:10:06.466Z,13.10
2023-01-20T12:11:07.297Z,6.60
2023-01-20T12:12:06.035Z,5.90
2023-01-20T12:13:06.297Z,8.80
2023-01-20T12:14:05.996Z,8.50
2023-01-20T12:15:06.438Z,25.90
2023-01-20T12:16:07.263Z,7.90
2023-01-20T12:17:06.050Z,7.80
2023-01-20T12:18:08.231Z,8.50
2023-01-20T12:19:06.031Z,3.10
2023-01-20T12:20:06.687Z,7.20
2023-01-20T12:21:06.229Z,6.30
2023-01-20T12:22:06.290Z,7.00
2023-01-20T12:23:05.877Z,5.60
2023-01-20T12:24:06.060Z,6.40
2023-01-20T12:25:05.854Z,5.80
2023-01-20T12:26:06.781Z,11.30
2023-01-20T12:27:06.817Z,6.30
2023-01-20T12:28:05.167Z,5.00
2023-01-20T12:29:06.516Z,6.30
2023-01-20T12:30:05.951Z,6.80
2023-01-20T12:31:06.599Z,6.40
2023-01-20T12:32:06.090Z,6.20
2023-01-20T12:33:05.591Z,7.70
2023-01-20T12:34:05.721Z,4.80
2023-01-20T12:35:05.064Z,7.40
2023-01-20T12:36:05.646Z,5.90
2023-01-20T12:37:05.105Z,7.30
2023-01-20T12:38:05.855Z,8.40
2023-01-20T12:39:06.677Z,5.90
2023-01-20T12:40:05.688Z,12.10
2023-01-20T12:41:05.859Z,8.10
2023-01-20T12:42:05.735Z,8.70
2023-01-20T12:43:05.963Z,5.80
2023-01-20T12:44:05.657Z,6.00
2023-01-20T12:45:06.168Z,10.00
2023-01-20T12:46:05.791Z,5.90
2023-01-20T12:47:06.138Z,5.40
2023-01-20T12:48:05.756Z,6.30
2023-01-20T12:49:04.987Z,6.70
2023-01-20T12:50:05.768Z,11.20
2023-01-20T12:51:05.576Z,5.70
2023-01-20T12:52:05.707Z,3.60
2023-01-20T12:53:04.885Z,5.90
2023-01-20T12:54:05.801Z,7.90
2023-01-20T12:55:04.877Z,7.20
2023-01-20T12:56:05.858Z,8.20
2023-01-20T12:57:05.575Z,5.00
2023-01-20T12:58:05.656Z,6.40
2023-01-20T12:59:04.928Z,11.20
2023-01-20T13:00:05.645Z,5.10
2023-01-20T13:01:05.637Z,6.70
2023-01-20T13:02:05.638Z,5.90
2023-01-20T13:03:05.714Z,5.40
2023-01-20T13:04:05.408Z,7.20
2023-01-20T13:05:05.506Z,4.80
2023-01-20T13:06:05.456Z,3.80
2023-01-20T13:07:05.515Z,4.40
2023-01-20T13:08:05.358Z,3.90
2023-01-20T13:09:05.617Z,13.60
2023-01-20T13:10:05.350Z,5.20
2023-01-20T13:11:05.477Z,2.60
2023-01-20T13:12:05.379Z,8.40